Time;durP1;ratioP1;P1;durP2;ratioP2;P2;SDS_P1;SDS_P2;PMS_P1;PMS_P2;Temp;Humidity;BMP_temperature;BMP_pressure;BME280_temperature;BME280_humidity;BME280_pressure;Samples;Min_cycle;Max_cycle;Signal;HPM_P1;HPM_P2
2022/11/25 00:01:22;;;;;;;;;;;;;;;24.55;45.46;94098.44;4914358;29;7684;-62
2022/11/25 00:03:50;;;;;;;;;;;;;;;24.55;46.08;94107.44;4914289;29;7303;-62
2022/11/25 00:06:18;;;;;;;;;;;;;;;24.56;46.01;94097.16;4911410;29;7017;-62
2022/11/25 00:08:47;;;;;;;;;;;;;;;24.56;45.99;94097.16;4932307;29;7078;-61
2022/11/25 00:11:16;;;;;;;;;;;;;;;24.54;45.43;94105.94;4910993;29;9120;-61
2022/11/25 00:13:44;;;;;;;;;;;;;;;24.55;45.55;94107.44;4937091;28;7411;-62
2022/11/25 00:16:14;;;;;;;;;;;;;;;24.54;45.31;94111.44;4959600;28;7312;-62
2022/11/25 00:18:47;;;;;;;;;;;;;;;24.54;45.69;94105.19;4999117;28;7068;-62
2022/11/25 00:21:17;;;;;;;;;;;;;;;24.54;45.50;94111.44;4999997;28;7433;-62
2022/11/25 00:23:44;;;;;;;;;;;;;;;24.54;45.90;94108.69;4986267;28;7304;-62
2022/11/25 00:26:38;;;;;;;;;;;;;;;24.56;46.27;94108.94;4986474;28;7968;-62
2022/11/25 00:29:13;;;;;;;;;;;;;;;24.56;46.00;94110.91;4985732;28;7235;-62
2022/11/25 00:31:41;;;;;;;;;;;;;;;24.56;45.84;94119.91;4983611;28;9439;-62
2022/11/25 00:34:14;;;;;;;;;;;;;;;24.56;45.97;94125.41;4991047;28;8662;-61
2022/11/25 00:36:42;;;;;;;;;;;;;;;24.54;46.13;94116.94;4987693;28;7189;-62
2022/11/25 00:39:15;;;;;;;;;;;;;;;24.54;45.49;94124.44;5004933;28;7418;-61
2022/11/25 00:44:50;;;;;;;;;;;;;;;24.55;46.22;94129.44;4990026;28;7742;-62
2022/11/25 00:47:22;;;;;;;;;;;;;;;24.52;45.92;94124.94;4986565;28;7205;-61
2022/11/25 00:49:55;;;;;;;;;;;;;;;24.53;45.48;94118.19;4993981;28;7416;-62
2022/11/25 00:52:25;;;;;;;;;;;;;;;24.52;45.26;94122.19;4999415;28;7433;-61
2022/11/25 00:54:58;;;;;;;;;;;;;;;24.52;45.39;94113.97;5002447;28;9282;-62
2022/11/25 00:57:31;;;;;;;;;;;;;;;24.52;45.57;94113.19;5004421;28;7758;-62
2022/11/25 01:00:00;;;;;;;;;;;;;;;24.52;45.86;94118.69;4992364;28;7021;-62
2022/11/25 01:02:46;;;;;;;;;;;;;;;24.51;45.63;94100.72;5003164;28;7034;-62
2022/11/25 01:05:12;;;;;;;;;;;;;;;24.51;46.03;94117.94;4981365;28;9135;-61
2022/11/25 01:07:40;;;;;;;;;;;;;;;24.51;45.43;94114.47;4963846;28;7350;-61
2022/11/25 01:10:09;;;;;;;;;;;;;;;24.53;46.02;94123.69;4988226;28;7252;-62
2022/11/25 01:12:37;;;;;;;;;;;;;;;24.50;45.76;94130.22;4990821;28;7314;-62
2022/11/25 01:15:06;;;;;;;;;;;;;;;24.49;45.35;94120.47;5001786;28;7117;-62
2022/11/25 01:17:35;;;;;;;;;;;;;;;24.53;45.38;94131.94;4993028;28;9745;-62
2022/11/25 01:20:03;;;;;;;;;;;;;;;24.51;45.39;94137.19;4988721;28;7019;-62
2022/11/25 01:22:58;;;;;;;;;;;;;;;24.53;45.87;94142.94;4985184;28;7127;-62
2022/11/25 01:25:29;;;;;;;;;;;;;;;24.52;45.49;94143.44;4975993;28;8502;-62
2022/11/25 01:27:56;;;;;;;;;;;;;;;24.53;45.15;94142.94;4992764;28;9083;-62
2022/11/25 01:30:32;;;;;;;;;;;;;;;24.51;45.59;94137.19;4976256;28;7528;-62
2022/11/25 01:32:58;;;;;;;;;;;;;;;24.52;45.57;94146.19;4989437;28;7023;-62
2022/11/25 01:35:55;;;;;;;;;;;;;;;24.52;45.92;94132.44;4974992;28;9094;-62
2022/11/25 01:38:34;;;;;;;;;;;;;;;24.51;45.09;94139.94;4905035;29;7543;-62
2022/11/25 01:41:04;;;;;;;;;;;;;;;24.52;45.75;94146.19;4900882;29;7194;-62
2022/11/25 01:43:41;;;;;;;;;;;;;;;24.50;45.99;94146.72;4899912;29;9706;-62
2022/11/25 01:46:24;;;;;;;;;;;;;;;24.50;45.92;94149.47;4900417;29;7239;-61
2022/11/25 01:49:16;;;;;;;;;;;;;;;24.51;45.39;94148.19;4902602;29;7303;-62
2022/11/25 01:51:48;;;;;;;;;;;;;;;24.52;45.92;94141.44;4899600;29;7263;-62
2022/11/25 01:54:22;;;;;;;;;;;;;;;24.51;45.58;94139.94;4914113;29;7226;-62
2022/11/25 01:57:20;;;;;;;;;;;;;;;24.52;45.89;94130.44;4896764;29;8493;-62
2022/11/25 01:59:55;;;;;;;;;;;;;;;24.51;45.14;94133.72;4907487;29;7341;-62
2022/11/25 02:02:30;;;;;;;;;;;;;;;24.51;45.58;94128.22;4926306;28;7060;-61
2022/11/25 02:05:00;;;;;;;;;;;;;;;24.51;45.38;94123.44;4929231;29;7383;-62
2022/11/25 02:07:39;;;;;;;;;;;;;;;24.50;45.13;94121.97;4933434;29;9286;-61
2022/11/25 02:10:12;;;;;;;;;;;;;;;24.51;46.09;94108.97;4934110;29;7785;-62
2022/11/25 02:12:41;;;;;;;;;;;;;;;24.51;45.54;94106.94;4930980;29;7236;-62
2022/11/25 02:15:12;;;;;;;;;;;;;;;24.51;45.37;94123.44;4998952;28;10235;-61
2022/11/25 02:17:46;;;;;;;;;;;;;;;24.51;45.54;94117.22;4982745;28;7233;-62
2022/11/25 02:20:21;;;;;;;;;;;;;;;24.51;45.97;94114.47;4992501;28;9121;-62
2022/11/25 02:23:25;;;;;;;;;;;;;;;24.51;45.81;94123.44;4989980;28;7560;-62
2022/11/25 02:25:53;;;;;;;;;;;;;;;24.50;45.89;94113.72;4984019;28;7036;-62
2022/11/25 02:28:31;;;;;;;;;;;;;;;24.50;45.54;94108.22;4991706;28;7626;-62
2022/11/25 02:31:01;;;;;;;;;;;;;;;24.48;45.48;94102.50;4979704;28;9754;-62
2022/11/25 02:33:32;;;;;;;;;;;;;;;24.50;45.73;94110.97;5000807;28;7927;-62
2022/11/25 02:36:04;;;;;;;;;;;;;;;24.49;45.49;94103.97;4985742;28;7243;-62
2022/11/25 02:38:42;;;;;;;;;;;;;;;24.49;46.11;94100.50;4992559;28;8245;-62
2022/11/25 02:41:24;;;;;;;;;;;;;;;24.48;45.86;94093.50;4981909;28;7211;-61
2022/11/25 02:43:50;;;;;;;;;;;;;;;24.48;45.24;94105.25;4974397;28;7031;-61
2022/11/25 02:46:19;;;;;;;;;;;;;;;24.49;45.87;94106.72;5000425;28;8799;-61
2022/11/25 02:48:49;;;;;;;;;;;;;;;24.49;46.17;94098.47;4980628;28;7251;-62
2022/11/25 02:51:19;;;;;;;;;;;;;;;24.49;45.41;94103.97;4978906;28;9069;-61
2022/11/25 02:53:49;;;;;;;;;;;;;;;24.48;46.01;94108.00;4982766;28;7489;-62
2022/11/25 02:56:16;;;;;;;;;;;;;;;24.49;45.54;94092.97;4983177;28;9026;-62
2022/11/25 02:58:45;;;;;;;;;;;;;;;24.49;46.06;94086.75;4975566;28;7274;-62
2022/11/25 03:01:13;;;;;;;;;;;;;;;24.51;45.42;94097.97;4985844;28;6884;-62
2022/11/25 03:03:41;;;;;;;;;;;;;;;24.50;45.57;94108.22;4991387;28;6987;-62
2022/11/25 03:06:10;;;;;;;;;;;;;;;24.50;45.38;94119.22;4990258;28;7359;-61
2022/11/25 03:08:38;;;;;;;;;;;;;;;24.51;45.63;94114.47;4975440;28;7141;-62
2022/11/25 03:11:10;;;;;;;;;;;;;;;24.49;45.88;94117.72;4979599;28;7315;-62
2022/11/25 03:13:42;;;;;;;;;;;;;;;24.50;45.24;94124.72;4998734;28;7259;-61
2022/11/25 03:16:11;;;;;;;;;;;;;;;24.48;45.28;94116.22;5004208;28;7232;-62
2022/11/25 03:18:43;;;;;;;;;;;;;;;24.50;45.65;94129.47;4993052;28;7301;-62
2022/11/25 03:21:11;;;;;;;;;;;;;;;24.47;45.32;94122.22;4982089;28;7020;-61
2022/11/25 03:23:39;;;;;;;;;;;;;;;24.47;45.36;94122.22;4991400;28;6989;-62
2022/11/25 03:26:08;;;;;;;;;;;;;;;24.48;45.63;94127.22;4982926;28;7323;-62
2022/11/25 03:28:37;;;;;;;;;;;;;;;24.49;45.31;94128.72;4998690;28;7298;-61
2022/11/25 03:31:09;;;;;;;;;;;;;;;24.46;45.94;94127.00;5000247;28;8678;-61
2022/11/25 03:33:36;;;;;;;;;;;;;;;24.47;45.51;94133.97;4980779;28;7883;-61
2022/11/25 03:36:04;;;;;;;;;;;;;;;24.48;45.71;94137.47;4985933;28;7264;-61
2022/11/25 03:38:32;;;;;;;;;;;;;;;24.47;45.65;94133.97;4989564;28;7516;-62
2022/11/25 03:40:58;;;;;;;;;;;;;;;24.46;45.61;94131.75;4986414;28;7328;-61
2022/11/25 03:43:24;;;;;;;;;;;;;;;24.47;45.63;94133.22;4977126;28;7125;-62
2022/11/25 03:45:52;;;;;;;;;;;;;;;24.43;45.02;94122.50;4998557;28;7426;-62
2022/11/25 03:48:20;;;;;;;;;;;;;;;24.43;45.47;94124.50;4981023;28;7107;-62
2022/11/25 03:50:49;;;;;;;;;;;;;;;24.46;45.39;94126.25;4999867;28;7026;-62
2022/11/25 03:53:19;;;;;;;;;;;;;;;24.45;45.81;94119.25;4979891;28;7280;-61
2022/11/25 03:55:53;;;;;;;;;;;;;;;24.46;45.38;94127.00;4980710;28;7546;-62
2022/11/25 03:58:20;;;;;;;;;;;;;;;24.46;45.67;94131.75;4981668;28;8863;-61
2022/11/25 04:01:15;;;;;;;;;;;;;;;24.48;45.50;94129.97;4983954;28;7116;-62
2022/11/25 04:03:51;;;;;;;;;;;;;;;24.47;45.10;94136.72;4986599;28;6981;-62
2022/11/25 04:06:19;;;;;;;;;;;;;;;24.46;45.76;94143.50;4982086;28;7199;-61
2022/11/25 04:08:45;;;;;;;;;;;;;;;24.46;45.68;94143.50;5000574;28;7271;-62
2022/11/25 04:11:14;;;;;;;;;;;;;;;24.46;45.27;94140.00;4987862;28;7280;-62
2022/11/25 04:13:45;;;;;;;;;;;;;;;24.44;45.65;94134.25;4980928;28;7309;-62
2022/11/25 04:16:30;;;;;;;;;;;;;;;24.47;45.70;94138.72;4999990;28;7056;-62
2022/11/25 04:19:02;;;;;;;;;;;;;;;24.46;45.61;94131.75;4987296;28;7326;-62
2022/11/25 04:21:35;;;;;;;;;;;;;;;24.46;45.67;94138.00;4985345;28;9399;-62
2022/11/25 04:24:07;;;;;;;;;;;;;;;24.46;45.83;94138.00;4981508;28;7494;-61
2022/11/25 04:27:02;;;;;;;;;;;;;;;24.46;45.82;94134.50;4993556;28;8312;-61
2022/11/25 04:29:28;;;;;;;;;;;;;;;24.46;45.22;94135.25;4973940;28;7377;-61
2022/11/25 04:32:31;;;;;;;;;;;;;;;24.46;45.24;94137.25;4970956;28;7324;-61
2022/11/25 04:35:10;;;;;;;;;;;;;;;24.46;45.25;94140.00;4947284;28;8649;-61
2022/11/25 04:37:44;;;;;;;;;;;;;;;24.45;45.78;94136.50;4946840;28;7025;-61
2022/11/25 04:40:10;;;;;;;;;;;;;;;24.44;45.31;94140.50;4957015;28;7282;-61
2022/11/25 04:42:45;;;;;;;;;;;;;;;24.44;45.60;94137.00;4963250;28;7277;-61
2022/11/25 04:45:17;;;;;;;;;;;;;;;24.45;45.48;94144.72;4970605;28;8635;-62
2022/11/25 04:48:00;;;;;;;;;;;;;;;24.44;45.34;94145.25;4946235;28;7286;-62
2022/11/25 04:50:31;;;;;;;;;;;;;;;24.43;45.81;94139.00;4953911;28;7230;-61
2022/11/25 04:53:16;;;;;;;;;;;;;;;24.44;45.32;94143.25;4966408;28;8579;-62
2022/11/25 04:56:16;;;;;;;;;;;;;;;24.44;45.65;94135.00;4946359;28;7205;-62
2022/11/25 05:01:46;;;;;;;;;;;;;;;24.44;45.55;94132.25;4870798;29;7494;-62
2022/11/25 05:04:25;;;;;;;;;;;;;;;24.44;45.46;94126.75;4859938;29;9345;-62
2022/11/25 05:06:51;;;;;;;;;;;;;;;24.44;45.63;94135.00;4870042;29;7254;-62
2022/11/25 05:09:19;;;;;;;;;;;;;;;24.43;45.63;94143.75;4888739;29;7162;-62
2022/11/25 05:11:45;;;;;;;;;;;;;;;24.43;45.76;94136.25;4892372;29;7039;-61
2022/11/25 05:14:15;;;;;;;;;;;;;;;24.44;45.23;94140.50;4894192;29;7519;-62
2022/11/25 05:16:41;;;;;;;;;;;;;;;24.42;45.23;94140.28;4896476;29;7001;-62
2022/11/25 05:19:11;;;;;;;;;;;;;;;24.42;45.20;94143.03;4911869;29;7183;-62
2022/11/25 05:21:51;;;;;;;;;;;;;;;24.41;45.74;94147.00;4898724;29;7799;-62
2022/11/25 05:24:25;;;;;;;;;;;;;;;24.42;45.89;94143.03;4912335;29;7256;-62
2022/11/25 05:26:52;;;;;;;;;;;;;;;24.42;45.60;94145.78;4899923;29;7415;-61
2022/11/25 05:29:25;;;;;;;;;;;;;;;24.42;45.56;94154.00;4891601;29;7107;-61
2022/11/25 05:31:57;;;;;;;;;;;;;;;24.42;45.13;94153.25;4890479;29;7042;-62
2022/11/25 05:34:23;;;;;;;;;;;;;;;24.42;45.50;94159.50;4920653;28;7116;-62
2022/11/25 05:36:50;;;;;;;;;;;;;;;24.38;45.08;94159.00;4989193;28;7240;-62
2022/11/25 05:39:22;;;;;;;;;;;;;;;24.42;45.22;94158.75;4991339;28;7432;-62
2022/11/25 05:41:51;;;;;;;;;;;;;;;24.42;45.60;94154.00;4967437;28;7069;-62
2022/11/25 05:44:50;;;;;;;;;;;;;;;24.43;45.52;94161.00;4977998;28;7209;-62
2022/11/25 05:47:27;;;;;;;;;;;;;;;24.43;45.79;94171.22;4986724;28;9645;-62
2022/11/25 05:50:02;;;;;;;;;;;;;;;24.43;45.67;94165.75;4990220;28;7269;-62
2022/11/25 05:52:30;;;;;;;;;;;;;;;24.43;45.18;94166.50;4988560;28;7340;-62
2022/11/25 05:54:56;;;;;;;;;;;;;;;24.43;45.19;94166.50;4987594;28;9193;-62
2022/11/25 05:57:25;;;;;;;;;;;;;;;24.45;45.31;94171.47;4990864;28;6998;-62
2022/11/25 05:59:53;;;;;;;;;;;;;;;24.42;45.01;94165.00;4986876;28;7187;-61
2022/11/25 06:02:21;;;;;;;;;;;;;;;24.48;45.69;94165.72;4989955;28;6869;-62
2022/11/25 06:04:52;;;;;;;;;;;;;;;24.53;45.63;94170.41;4991282;28;9015;-62
2022/11/25 06:07:18;;;;;;;;;;;;;;;24.56;45.28;94172.16;4975770;28;7451;-61
2022/11/25 06:09:43;;;;;;;;;;;;;;;24.58;44.86;94180.66;4972270;28;8717;-62
2022/11/25 06:12:11;;;;;;;;;;;;;;;24.62;45.00;94178.38;4986595;28;7558;-62
2022/11/25 06:14:37;;;;;;;;;;;;;;;24.68;44.67;94181.09;4972577;28;7007;-61
2022/11/25 06:17:05;;;;;;;;;;;;;;;24.71;44.81;94186.31;4971167;28;7309;-62
2022/11/25 06:19:34;;;;;;;;;;;;;;;24.73;44.46;94185.06;4987842;28;7128;-62
2022/11/25 06:22:00;;;;;;;;;;;;;;;24.70;44.54;94187.59;4965044;28;7249;-62
2022/11/25 06:24:29;;;;;;;;;;;;;;;24.69;44.51;94188.84;4983130;28;7361;-62
2022/11/25 06:26:57;;;;;;;;;;;;;;;24.67;44.07;94194.09;4997344;28;7025;-61
2022/11/25 06:29:23;;;;;;;;;;;;;;;24.64;44.90;94186.84;4980810;28;7217;-62
2022/11/25 06:31:51;;;;;;;;;;;;;;;24.62;43.97;94196.91;4995244;28;7282;-61
2022/11/25 06:34:18;;;;;;;;;;;;;;;24.61;44.62;94198.13;4992168;28;7043;-61
2022/11/25 06:36:48;;;;;;;;;;;;;;;24.57;44.25;94198.41;4979799;28;7235;-62
2022/11/25 06:39:14;;;;;;;;;;;;;;;24.56;44.72;94196.16;4994652;28;7163;-62
2022/11/25 06:41:40;;;;;;;;;;;;;;;24.54;44.54;94204.16;4977170;28;7066;-61
2022/11/25 06:44:19;;;;;;;;;;;;;;;24.53;43.64;94200.66;4991997;28;7322;-61
2022/11/25 06:47:03;;;;;;;;;;;;;;;24.54;44.67;94204.16;4984052;28;7131;-61
2022/11/25 06:49:30;;;;;;;;;;;;;;;24.53;43.73;94203.41;5001839;28;7016;-61
2022/11/25 06:52:03;;;;;;;;;;;;;;;24.53;44.39;94202.69;4986568;28;7036;-62
2022/11/25 06:54:50;;;;;;;;;;;;;;;24.51;44.16;94205.19;4996657;28;7207;-62
2022/11/25 06:57:22;;;;;;;;;;;;;;;24.51;43.75;94203.19;4999847;28;6975;-62
2022/11/25 06:59:59;;;;;;;;;;;;;;;24.49;43.23;94202.22;4988491;28;7328;-62
2022/11/25 07:02:26;;;;;;;;;;;;;;;24.48;44.39;94214.47;4986195;28;8461;-62
2022/11/25 07:04:55;;;;;;;;;;;;;;;24.46;44.29;94209.47;4980054;28;7266;-62
2022/11/25 07:07:23;;;;;;;;;;;;;;;24.46;44.52;94217.72;4986459;28;7111;-62
2022/11/25 07:09:52;;;;;;;;;;;;;;;24.46;44.47;94217.72;4990861;28;7219;-61
2022/11/25 07:12:18;;;;;;;;;;;;;;;24.44;45.02;94211.97;4996217;28;9075;-62
2022/11/25 07:14:43;;;;;;;;;;;;;;;24.45;44.58;94221.72;4988752;28;9060;-62
2022/11/25 07:17:25;;;;;;;;;;;;;;;24.47;44.77;94223.94;4987583;28;7553;-62
2022/11/25 07:19:51;;;;;;;;;;;;;;;24.46;44.64;94236.22;5002355;28;9723;-62
2022/11/25 07:22:32;;;;;;;;;;;;;;;24.46;45.11;94225.97;4979924;28;7091;-61
2022/11/25 07:25:16;;;;;;;;;;;;;;;24.46;44.07;94234.22;4986600;28;7175;-61
2022/11/25 07:27:58;;;;;;;;;;;;;;;24.46;44.59;94231.47;4982070;28;7067;-62
2022/11/25 07:30:27;;;;;;;;;;;;;;;24.48;45.02;94241.94;4982767;28;7056;-62
2022/11/25 07:32:58;;;;;;;;;;;;;;;24.47;45.25;94243.19;4987331;28;7479;-62
2022/11/25 07:35:24;;;;;;;;;;;;;;;24.45;45.27;94246.47;4984005;28;8332;-61
2022/11/25 07:37:51;;;;;;;;;;;;;;;24.47;45.12;94238.44;4987356;28;7265;-62
2022/11/25 07:40:19;;;;;;;;;;;;;;;24.47;44.56;94243.94;5001735;28;8712;-61
2022/11/25 07:42:47;;;;;;;;;;;;;;;24.47;44.61;94248.69;4992031;28;8288;-62
2022/11/25 07:45:27;;;;;;;;;;;;;;;24.44;44.72;94247.72;4985215;28;7454;-62
2022/11/25 07:48:19;;;;;;;;;;;;;;;24.47;45.33;94256.94;4984348;28;9539;-62
2022/11/25 07:50:48;;;;;;;;;;;;;;;24.47;45.50;94260.44;4953774;28;7025;-62
2022/11/25 07:53:45;;;;;;;;;;;;;;;24.49;45.24;94271.69;4952711;28;7005;-62
2022/11/25 07:56:22;;;;;;;;;;;;;;;24.48;44.82;94267.44;4894368;29;7035;-62
2022/11/25 07:58:57;;;;;;;;;;;;;;;24.49;45.33;94271.69;4894996;29;7053;-61
2022/11/25 08:01:54;;;;;;;;;;;;;;;24.53;44.99;94274.91;4894426;29;7085;-62
2022/11/25 08:04:27;;;;;;;;;;;;;;;24.52;44.94;94275.41;4849160;29;7201;-61
2022/11/25 08:06:53;;;;;;;;;;;;;;;24.51;45.27;94276.69;4856932;29;7432;-61
2022/11/25 08:09:23;;;;;;;;;;;;;;;24.53;45.38;94279.69;4848212;29;7253;-61
2022/11/25 08:11:54;;;;;;;;;;;;;;;24.53;45.34;94283.16;4855278;29;7372;-61
2022/11/25 08:14:20;;;;;;;;;;;;;;;24.54;46.05;94289.41;4859545;29;7004;-61
2022/11/25 08:17:07;;;;;;;;;;;;;;;24.54;44.48;94281.16;4858257;29;7050;-61
2022/11/25 08:19:46;;;;;;;;;;;;;;;24.53;45.08;94283.16;4857390;29;7342;-62
2022/11/25 08:22:15;;;;;;;;;;;;;;;24.51;44.82;94282.91;4841486;29;9399;-62
2022/11/25 08:24:41;;;;;;;;;;;;;;;24.50;44.79;94286.19;4848665;29;7243;-62
2022/11/25 08:27:09;;;;;;;;;;;;;;;24.51;44.81;94285.66;4835648;29;7553;-61
2022/11/25 08:29:37;;;;;;;;;;;;;;;24.50;45.10;94286.19;4816033;29;7531;-62
2022/11/25 08:32:06;;;;;;;;;;;;;;;24.57;45.04;94291.91;4854043;29;7039;-61
2022/11/25 08:34:34;;;;;;;;;;;;;;;24.55;44.91;94299.16;4903769;29;7394;-62
2022/11/25 08:37:05;;;;;;;;;;;;;;;24.52;44.89;94289.91;4891309;29;7357;-61
2022/11/25 08:39:33;;;;;;;;;;;;;;;24.51;45.06;94302.16;4896722;29;8643;-62
2022/11/25 08:42:03;;;;;;;;;;;;;;;24.52;45.55;94302.91;4990385;28;7025;-62
2022/11/25 08:44:36;;;;;;;;;;;;;;;24.53;44.59;94296.19;4987978;28;7081;-62
2022/11/25 08:47:10;;;;;;;;;;;;;;;24.52;45.62;94302.91;4983757;28;7885;-62
2022/11/25 08:49:38;;;;;;;;;;;;;;;24.52;45.62;94300.91;4986374;28;7139;-61
2022/11/25 08:52:12;;;;;;;;;;;;;;;24.51;45.17;94306.94;4989247;28;10407;-61
2022/11/25 08:54:47;;;;;;;;;;;;;;;24.52;45.14;94309.16;4991651;28;7250;-61
2022/11/25 08:57:19;;;;;;;;;;;;;;;24.53;45.27;94312.66;4986947;28;7044;-62
2022/11/25 09:00:03;;;;;;;;;;;;;;;24.51;45.43;94315.19;5005728;28;7257;-62
2022/11/25 09:02:41;;;;;;;;;;;;;;;24.52;45.12;94317.41;4986776;28;7293;-61
2022/11/25 09:05:18;;;;;;;;;;;;;;;24.52;45.23;94316.66;4989071;28;7201;-61
2022/11/25 09:07:46;;;;;;;;;;;;;;;24.52;45.33;94319.41;4993775;28;7333;-61
2022/11/25 09:10:16;;;;;;;;;;;;;;;24.53;45.57;94318.16;4990921;28;7178;-61
2022/11/25 09:12:42;;;;;;;;;;;;;;;24.53;45.41;94324.41;4992566;28;7120;-61
2022/11/25 09:15:13;;;;;;;;;;;;;;;24.51;45.26;94329.66;4985942;28;7198;-61
2022/11/25 09:17:39;;;;;;;;;;;;;;;24.51;45.08;94331.69;4981996;28;7251;-61
2022/11/25 09:20:25;;;;;;;;;;;;;;;24.52;44.85;94338.66;5004734;28;7034;-62
2022/11/25 09:22:54;;;;;;;;;;;;;;;24.52;44.98;94350.41;5005020;28;8003;-62
2022/11/25 09:25:23;;;;;;;;;;;;;;;24.52;45.29;94347.66;5006951;28;8674;-61
2022/11/25 09:27:52;;;;;;;;;;;;;;;24.51;45.74;94357.16;4986716;28;7137;-62
2022/11/25 09:30:18;;;;;;;;;;;;;;;24.53;45.11;94365.63;5001761;28;7227;-61
2022/11/25 09:32:58;;;;;;;;;;;;;;;24.53;45.97;94362.88;4984138;28;7305;-62
2022/11/25 09:35:33;;;;;;;;;;;;;;;24.52;45.46;94366.91;4990713;28;7128;-59
2022/11/25 09:37:59;;;;;;;;;;;;;;;24.49;45.69;94362.41;4986109;28;7060;-59
2022/11/25 09:40:38;;;;;;;;;;;;;;;24.49;45.48;94367.91;4991927;28;7552;-59
2022/11/25 09:46:46;;;;;;;;;;;;;;;24.50;45.92;94374.91;4993344;28;8982;-61
2022/11/25 09:49:17;;;;;;;;;;;;;;;24.50;45.22;94380.41;5005570;28;9652;-61
2022/11/25 09:52:26;;;;;;;;;;;;;;;24.50;44.81;94383.16;4986612;28;7571;-61
2022/11/25 09:55:04;;;;;;;;;;;;;;;24.50;44.80;94388.66;4983626;28;7328;-61
2022/11/25 09:58:15;;;;;;;;;;;;;;;24.50;44.47;94396.91;4995002;28;7673;-61
2022/11/25 10:00:46;;;;;;;;;;;;;;;24.50;44.60;94396.16;4985929;28;7319;-60
2022/11/25 10:03:42;;;;;;;;;;;;;;;24.50;44.19;94399.66;4998553;28;7054;-60
2022/11/25 10:06:27;;;;;;;;;;;;;;;24.49;45.40;94405.66;4984903;28;7359;-61
2022/11/25 10:08:57;;;;;;;;;;;;;;;24.50;45.54;94413.41;4981436;28;7141;-61
2022/11/25 10:11:50;;;;;;;;;;;;;;;24.51;44.76;94405.91;4978363;28;7480;-61
2022/11/25 10:14:39;;;;;;;;;;;;;;;24.50;45.31;94418.91;4987575;28;8360;-60
2022/11/25 10:17:48;;;;;;;;;;;;;;;24.49;44.87;94411.16;4988140;28;9031;-61
2022/11/25 10:20:19;;;;;;;;;;;;;;;24.49;45.56;94417.41;4978120;28;7502;-61
2022/11/25 10:23:23;;;;;;;;;;;;;;;24.50;45.14;94413.41;4986267;28;7400;-61
2022/11/25 10:26:09;;;;;;;;;;;;;;;24.51;45.53;94414.88;4954154;28;7262;-61
2022/11/25 10:29:20;;;;;;;;;;;;;;;24.52;45.26;94421.16;4976052;28;7316;-61
2022/11/25 10:31:50;;;;;;;;;;;;;;;24.52;45.21;94421.16;4974177;28;7539;-61
2022/11/25 10:34:25;;;;;;;;;;;;;;;24.53;44.95;94417.16;4960928;28;7446;-61
2022/11/25 10:36:55;;;;;;;;;;;;;;;24.52;45.86;94418.41;4960952;28;7077;-61
2022/11/25 10:39:23;;;;;;;;;;;;;;;24.51;45.23;94417.63;4973107;28;7039;-61
2022/11/25 10:42:31;;;;;;;;;;;;;;;24.51;45.83;94414.88;4972207;28;7266;-61
2022/11/25 10:45:07;;;;;;;;;;;;;;;24.52;44.73;94413.66;4969963;28;7270;-61
2022/11/25 10:48:00;;;;;;;;;;;;;;;24.53;45.57;94404.13;4954595;28;7314;-61
2022/11/25 10:50:47;;;;;;;;;;;;;;;24.53;45.27;94393.13;4977554;28;9024;-61
2022/11/25 10:53:28;;;;;;;;;;;;;;;24.58;45.19;94397.88;4971393;28;7408;-61
2022/11/25 10:56:20;;;;;;;;;;;;;;;24.61;45.41;94390.63;4967034;28;7464;-61
2022/11/25 10:58:55;;;;;;;;;;;;;;;24.61;45.49;94388.63;4958420;28;7029;-61
2022/11/25 11:01:25;;;;;;;;;;;;;;;24.64;45.73;94384.84;4973354;28;8571;-61
2022/11/25 11:04:42;;;;;;;;;;;;;;;24.66;45.55;94384.38;4975632;28;7539;-61
2022/11/25 11:07:11;;;;;;;;;;;;;;;24.66;46.26;94365.84;4913379;29;7294;-61
2022/11/25 11:09:42;;;;;;;;;;;;;;;24.67;46.04;94369.34;4910644;29;7037;-61
2022/11/25 11:12:27;;;;;;;;;;;;;;;24.67;46.17;94361.84;4905652;29;9473;-61
2022/11/25 11:15:17;;;;;;;;;;;;;;;24.68;46.42;94359.88;4911971;29;7427;-61
2022/11/25 11:17:56;;;;;;;;;;;;;;;24.67;46.77;94352.84;4917171;29;7282;-61
2022/11/25 11:20:33;;;;;;;;;;;;;;;24.68;46.42;94351.63;4909674;29;7157;-60
2022/11/25 11:23:24;;;;;;;;;;;;;;;24.68;47.02;94344.09;4911425;29;9014;-60
2022/11/25 11:26:08;;;;;;;;;;;;;;;24.68;46.44;94338.59;4925276;29;7227;-61
2022/11/25 11:28:35;;;;;;;;;;;;;;;24.66;46.84;94338.34;4921464;29;9081;-60
2022/11/25 11:31:07;;;;;;;;;;;;;;;24.67;46.67;94326.09;4915690;29;6974;-60
2022/11/25 11:33:35;;;;;;;;;;;;;;;24.68;45.97;94327.59;4923051;29;7382;-61
2022/11/25 11:36:30;;;;;;;;;;;;;;;24.69;46.07;94322.84;4908577;29;7546;-61
2022/11/25 11:39:21;;;;;;;;;;;;;;;24.70;45.93;94325.09;4924599;29;7148;-61
2022/11/25 11:42:33;;;;;;;;;;;;;;;24.71;46.37;94326.59;4931978;28;10703;-61
2022/11/25 11:45:14;;;;;;;;;;;;;;;24.71;46.37;94329.34;4965215;28;7029;-61
2022/11/25 11:47:55;;;;;;;;;;;;;;;24.70;46.40;94327.84;4988689;28;7105;-60
2022/11/25 11:50:31;;;;;;;;;;;;;;;24.70;45.78;94333.34;4987778;28;7000;-61
2022/11/25 11:53:15;;;;;;;;;;;;;;;24.69;45.90;94326.34;4983952;28;7265;-60
2022/11/25 11:55:54;;;;;;;;;;;;;;;24.70;45.58;94327.09;4981420;28;7888;-60
2022/11/25 11:58:31;;;;;;;;;;;;;;;24.70;46.10;94325.09;4986752;28;8858;-60
2022/11/25 12:01:31;;;;;;;;;;;;;;;24.71;46.21;94329.34;4967724;28;7253;-60
2022/11/25 12:04:35;;;;;;;;;;;;;;;24.73;45.82;94328.81;4984715;28;7251;-60
2022/11/25 12:07:22;;;;;;;;;;;;;;;24.73;45.87;94331.56;4934842;28;7251;-60
2022/11/25 12:09:53;;;;;;;;;;;;;;;24.77;45.97;94336.84;4949925;28;8702;-60
2022/11/25 12:12:35;;;;;;;;;;;;;;;24.85;45.99;94337.81;4946801;29;7264;-61
2022/11/25 12:15:16;;;;;;;;;;;;;;;25.07;45.95;94337.72;4928577;29;7776;-60
2022/11/25 12:18:06;;;;;;;;;;;;;;;25.28;45.34;94336.84;4930625;29;7030;-60
2022/11/25 12:20:51;;;;;;;;;;;;;;;25.45;45.03;94339.50;4947540;29;7101;-61
2022/11/25 12:23:28;;;;;;;;;;;;;;;25.47;44.32;94344.53;4949497;28;9097;-61
2022/11/25 12:26:05;;;;;;;;;;;;;;;25.43;43.91;94347.53;4935522;28;9086;-61
2022/11/25 12:29:01;;;;;;;;;;;;;;;25.40;44.83;94352.00;4933637;28;7566;-61
2022/11/25 12:32:01;;;;;;;;;;;;;;;25.32;44.07;94358.56;4934928;28;7178;-61
2022/11/25 12:34:36;;;;;;;;;;;;;;;25.28;44.47;94360.84;4944211;28;7152;-61
2022/11/25 12:37:15;;;;;;;;;;;;;;;25.24;44.31;94365.88;4936840;28;7564;-61
2022/11/25 12:40:01;;;;;;;;;;;;;;;25.18;45.08;94373.44;4937061;28;7273;-62
2022/11/25 12:42:31;;;;;;;;;;;;;;;25.12;45.56;94372.72;4941013;28;7377;-61
2022/11/25 12:45:27;;;;;;;;;;;;;;;25.07;45.76;94376.25;4980263;28;7050;-61
2022/11/25 12:47:59;;;;;;;;;;;;;;;25.01;44.95;94376.25;4977090;28;7794;-61
2022/11/25 12:50:46;;;;;;;;;;;;;;;24.99;45.76;94383.53;4982607;28;7255;-61
2022/11/25 12:53:54;;;;;;;;;;;;;;;24.95;45.14;94386.53;4980504;28;7040;-61
2022/11/25 12:56:37;;;;;;;;;;;;;;;24.94;45.34;94387.81;4949656;28;7053;-61
2022/11/25 12:59:34;;;;;;;;;;;;;;;24.92;45.54;94386.81;4930097;28;7387;-61
2022/11/25 13:02:45;;;;;;;;;;;;;;;24.91;44.92;94390.81;4954115;28;7061;-61
2022/11/25 13:05:48;;;;;;;;;;;;;;;24.87;45.81;94388.31;4957653;28;7047;-61
2022/11/25 13:08:32;;;;;;;;;;;;;;;24.87;45.17;94395.81;4940810;28;8949;-61
2022/11/25 13:11:22;;;;;;;;;;;;;;;24.84;45.90;94400.34;4939651;28;8247;-61
2022/11/25 13:13:57;;;;;;;;;;;;;;;24.82;45.27;94397.34;4931932;28;7058;-61
2022/11/25 13:16:32;;;;;;;;;;;;;;;24.83;45.55;94398.84;4951116;28;7038;-61
2022/11/25 13:18:59;;;;;;;;;;;;;;;24.83;46.06;94411.84;4931085;28;7249;-61
2022/11/25 13:21:27;;;;;;;;;;;;;;;24.87;45.55;94412.34;4949458;28;7340;-61
2022/11/25 13:23:58;;;;;;;;;;;;;;;24.90;45.40;94419.59;4937024;28;7318;-61
2022/11/25 13:26:33;;;;;;;;;;;;;;;24.87;45.75;94426.09;4950999;28;7498;-61
2022/11/25 13:29:15;;;;;;;;;;;;;;;24.90;45.73;94427.84;4932581;28;7222;-61
2022/11/25 13:32:24;;;;;;;;;;;;;;;24.92;46.00;94431.59;4964838;28;7274;-61
2022/11/25 13:34:50;;;;;;;;;;;;;;;24.89;46.12;94432.59;4991441;28;7229;-61
2022/11/25 13:37:39;;;;;;;;;;;;;;;24.89;45.92;94429.84;4990366;28;7065;-61
2022/11/25 13:40:21;;;;;;;;;;;;;;;24.94;45.53;94440.09;4998936;28;9296;-61
2022/11/25 13:42:50;;;;;;;;;;;;;;;25.02;45.56;94445.78;4980308;28;7375;-61
2022/11/25 13:45:44;;;;;;;;;;;;;;;25.04;45.58;94452.31;4979913;28;7336;-61
2022/11/25 13:48:30;;;;;;;;;;;;;;;25.03;45.83;94456.31;4987900;28;7125;-61
2022/11/25 13:51:20;;;;;;;;;;;;;;;25.03;45.69;94459.06;5003758;28;7064;-61
2022/11/25 13:54:04;;;;;;;;;;;;;;;25.00;46.18;94467.56;4982521;28;7651;-61